Archival Weather

Snohomish County (Paine Fld)

Everett, Washington (KPAE)

Report from: Saturday, October 28, 2023 3:53 AM PDT
Current time: Friday, June 14, 2024 6:08 AM PDT

Current weather – Weather history – Daily summaries
Weather forecast

Temperature2.2°C (36.0°F)
Wind chill-0.9°C (30.3°F)
Dew point-2.8°C (27.0°F)
Winds 6 kts (3.1 m/s, 6.9 mph) East (100°)
Visibility10 mi. (16.1 km)
Clouds Sky clear
Altimeter30.50 in.Hg (1033 mB)
Relative humidity69 %
Density altitude-2,155 ft. (-657 m)
Sea-level pressure103.3 kPa (1033 mB, 30.51 in.Hg)
Remarks Fully automated report
Automated weather observing station with precipitation discriminator
Flight conditions Visual Meteorological Conditions
Raw dataKPAE 281053Z AUTO 10006KT 10SM CLR 02/M03 A3050 RMK AO2 SLP332 T00221028
An error has occurred. This application may no longer respond until reloaded. Reload 🗙